createdAt,value
2022-11-19T00:00:47.630Z,93.14
2022-11-19T00:05:50.492Z,91.95
2022-11-19T00:10:52.784Z,92.75
2022-11-19T00:15:54.948Z,92.78
2022-11-19T00:21:03.443Z,92.59
2022-11-19T00:26:15.072Z,92.92
2022-11-19T00:31:17.407Z,93.79
2022-11-19T00:36:19.137Z,94.13
2022-11-19T00:41:20.810Z,95.10
2022-11-19T00:46:30.965Z,95.62
2022-11-19T00:51:33.279Z,97.43
2022-11-19T00:56:34.981Z,96.71
2022-11-19T01:01:36.748Z,96.61
2022-11-19T01:06:38.459Z,96.78
2022-11-19T01:11:40.328Z,96.39
2022-11-19T01:16:42.437Z,96.39
2022-11-19T01:21:44.109Z,97.48
2022-11-19T01:26:46.370Z,97.29
2022-11-19T01:31:50.661Z,97.37
2022-11-19T01:36:53.187Z,97.07
2022-11-19T01:41:55.336Z,96.39
2022-11-19T01:46:57.472Z,98.07
2022-11-19T01:52:02.940Z,98.23
2022-11-19T01:57:10.543Z,97.55
2022-11-19T02:02:13.583Z,97.73
2022-11-19T02:07:16.722Z,97.73
2022-11-19T02:12:49.539Z,97.96
2022-11-19T02:18:11.038Z,97.22
2022-11-19T02:23:34.479Z,97.22
2022-11-19T02:28:46.628Z,97.70
2022-11-19T02:33:56.362Z,97.83
2022-11-19T02:39:06.607Z,97.83
2022-11-19T02:44:40.568Z,98.86
2022-11-19T02:49:47.487Z,98.01
2022-11-19T02:54:49.277Z,98.01
2022-11-19T03:00:17.334Z,98.66
2022-11-19T03:05:23.351Z,98.08
2022-11-19T03:10:31.481Z,98.17
2022-11-19T03:15:51.673Z,98.23
2022-11-19T03:21:04.335Z,98.23
2022-11-19T03:26:40.740Z,98.13
2022-11-19T03:31:47.610Z,98.18
2022-11-19T03:36:53.539Z,97.54
2022-11-19T03:41:56.964Z,97.54
2022-11-19T03:47:08.283Z,97.38
2022-11-19T03:52:12.745Z,97.55
2022-11-19T03:57:20.132Z,97.55
2022-11-19T04:02:22.069Z,98.52
2022-11-19T04:07:24.471Z,98.52
2022-11-19T04:12:26.165Z,98.14
2022-11-19T04:17:27.907Z,97.95
2022-11-19T04:22:29.579Z,97.95
2022-11-19T04:27:31.244Z,97.91
2022-11-19T04:32:32.908Z,97.36
2022-11-19T04:37:34.656Z,97.50
2022-11-19T04:42:36.317Z,97.67
2022-11-19T04:47:38.011Z,97.67
2022-11-19T04:52:41.305Z,97.13
2022-11-19T04:57:43.379Z,96.56
2022-11-19T05:02:45.674Z,97.61
2022-11-19T05:07:47.411Z,98.12
2022-11-19T05:12:49.504Z,98.57
2022-11-19T05:17:51.228Z,97.67
2022-11-19T05:22:53.051Z,96.63
2022-11-19T05:27:54.804Z,96.20
2022-11-19T05:32:56.779Z,96.20
2022-11-19T05:37:58.489Z,96.42
2022-11-19T05:43:06.228Z,96.41
2022-11-19T05:48:07.906Z,96.04
2022-11-19T05:53:10.173Z,95.49
2022-11-19T05:58:13.780Z,95.32
2022-11-19T06:03:15.562Z,95.90
2022-11-19T06:08:17.578Z,95.50
2022-11-19T06:13:19.323Z,94.92
2022-11-19T06:18:21.011Z,95.67
2022-11-19T06:23:22.677Z,95.41
2022-11-19T06:28:24.403Z,94.75
2022-11-19T06:33:26.091Z,93.84
2022-11-19T06:38:27.781Z,94.37
2022-11-19T06:43:29.471Z,94.71
2022-11-19T06:48:31.194Z,94.03
2022-11-19T06:53:33.284Z,94.03
2022-11-19T06:58:35.121Z,93.55
2022-11-19T07:03:36.861Z,93.35
2022-11-19T07:08:39.482Z,93.35
2022-11-19T07:13:59.060Z,92.20
2022-11-19T07:19:03.091Z,93.25
2022-11-19T07:24:07.472Z,93.97
2022-11-19T07:29:11.338Z,93.32
2022-11-19T07:34:12.986Z,92.64
2022-11-19T07:39:14.660Z,92.32
2022-11-19T07:44:16.372Z,92.56
2022-11-19T07:49:18.714Z,93.30
2022-11-19T07:54:20.743Z,93.74
2022-11-19T07:59:22.678Z,93.64
2022-11-19T08:04:27.006Z,93.21
2022-11-19T08:09:28.743Z,93.45
2022-11-19T08:14:30.436Z,93.05
2022-11-19T08:19:32.146Z,92.94
2022-11-19T08:24:33.796Z,93.85
2022-11-19T08:29:35.489Z,93.91
2022-11-19T08:34:37.244Z,93.20
2022-11-19T08:39:40.429Z,93.59
2022-11-19T08:44:42.099Z,93.40
2022-11-19T08:49:43.758Z,93.52
2022-11-19T08:54:45.451Z,92.74
2022-11-19T08:59:47.201Z,91.72
2022-11-19T09:04:48.970Z,92.23
2022-11-19T09:09:50.674Z,92.43
2022-11-19T09:14:52.347Z,89.14
2022-11-19T09:19:54.035Z,84.51
2022-11-19T09:24:55.756Z,80.85
2022-11-19T09:29:57.442Z,77.62
2022-11-19T09:34:59.107Z,78.18
2022-11-19T09:40:00.930Z,70.46
2022-11-19T09:45:33.333Z,65.57
2022-11-19T09:50:53.074Z,62.22
2022-11-19T09:55:55.310Z,59.75
2022-11-19T10:00:57.429Z,58.81
2022-11-19T10:06:18.000Z,61.15
2022-11-19T10:11:31.790Z,57.77
2022-11-19T10:16:42.055Z,55.56
2022-11-19T10:22:09.895Z,56.81
2022-11-19T10:27:19.542Z,52.46
2022-11-19T10:32:24.176Z,53.59
2022-11-19T10:37:32.159Z,53.98
2022-11-19T10:42:33.794Z,46.51
2022-11-19T10:47:44.470Z,45.05
2022-11-19T10:52:53.055Z,43.11
2022-11-19T10:58:22.845Z,42.03
2022-11-19T11:03:34.797Z,43.12
2022-11-19T11:08:52.954Z,46.61
2022-11-19T11:14:18.747Z,46.18
2022-11-19T11:19:22.005Z,46.16
2022-11-19T11:24:36.576Z,43.86
2022-11-19T11:29:38.258Z,42.25
2022-11-19T11:34:43.945Z,42.63
2022-11-19T11:39:50.959Z,41.66
2022-11-19T11:44:54.356Z,42.70
2022-11-19T11:50:06.739Z,42.64
2022-11-19T11:55:31.713Z,41.69
2022-11-19T12:00:40.806Z,43.43
2022-11-19T12:06:04.356Z,46.94
2022-11-19T12:11:12.058Z,44.20
2022-11-19T12:16:42.554Z,46.64
2022-11-19T12:21:56.625Z,47.20
2022-11-19T12:27:01.090Z,42.60
2022-11-19T12:32:17.861Z,44.11
2022-11-19T12:37:33.578Z,43.67
2022-11-19T12:43:02.043Z,41.90
2022-11-19T12:48:13.342Z,46.74
2022-11-19T12:53:27.795Z,46.72
2022-11-19T12:58:35.468Z,46.09
2022-11-19T13:03:49.271Z,44.57
2022-11-19T13:09:34.670Z,49.89
2022-11-19T13:14:54.645Z,48.80
2022-11-19T13:20:01.379Z,50.10
2022-11-19T13:25:05.472Z,54.20
2022-11-19T13:30:17.833Z,51.74
2022-11-19T13:35:33.130Z,54.64
2022-11-19T13:40:59.114Z,50.11
2022-11-19T13:46:26.656Z,51.77
2022-11-19T13:51:47.701Z,52.41
2022-11-19T13:56:51.630Z,55.34
2022-11-19T14:02:10.999Z,57.35
2022-11-19T14:07:22.892Z,60.62
2022-11-19T14:12:52.589Z,60.87
2022-11-19T14:18:20.801Z,67.59
2022-11-19T14:24:06.868Z,66.97
2022-11-19T14:29:40.380Z,68.84
2022-11-19T14:34:46.937Z,68.76
2022-11-19T14:39:57.361Z,69.27
2022-11-19T14:45:02.988Z,71.67
2022-11-19T14:50:09.026Z,73.36
2022-11-19T14:55:16.707Z,75.06
2022-11-19T15:00:18.327Z,76.11
2022-11-19T15:05:21.531Z,76.67
2022-11-19T15:10:27.577Z,78.40
2022-11-19T15:15:38.178Z,79.79
2022-11-19T15:21:14.013Z,80.92
2022-11-19T15:26:41.439Z,83.52
2022-11-19T15:32:14.185Z,83.79
2022-11-19T15:37:19.177Z,84.41
2022-11-19T15:42:42.071Z,86.37
2022-11-19T15:48:18.272Z,87.80
2022-11-19T15:53:24.419Z,86.97
2022-11-19T15:58:30.386Z,88.39
2022-11-19T16:03:32.663Z,87.53
2022-11-19T16:08:35.086Z,87.45
2022-11-19T16:13:55.295Z,87.58
2022-11-19T16:18:56.971Z,87.59
2022-11-19T16:24:18.993Z,88.15
2022-11-19T16:29:23.615Z,89.01
2022-11-19T16:34:29.952Z,90.05
2022-11-19T16:39:33.152Z,90.29
2022-11-19T16:44:35.249Z,91.69
2022-11-19T16:49:49.213Z,92.36
2022-11-19T16:54:51.310Z,93.34
2022-11-19T16:59:59.435Z,93.23
2022-11-19T17:05:12.448Z,93.86
2022-11-19T17:10:14.074Z,94.96
2022-11-19T17:15:44.854Z,94.32
2022-11-19T17:20:50.932Z,94.79
2022-11-19T17:26:08.274Z,94.16
2022-11-19T17:31:19.610Z,94.13
2022-11-19T17:36:22.411Z,94.46
2022-11-19T17:41:46.139Z,94.73
2022-11-19T17:46:47.922Z,94.94
2022-11-19T17:51:49.604Z,94.57
2022-11-19T17:56:51.262Z,94.35
2022-11-19T18:01:53.518Z,93.98
2022-11-19T18:06:55.222Z,93.63
2022-11-19T18:11:56.916Z,94.33
2022-11-19T18:16:58.697Z,93.61
2022-11-19T18:22:00.447Z,94.93
2022-11-19T18:27:02.179Z,96.13
2022-11-19T18:32:03.919Z,96.12
2022-11-19T18:37:05.712Z,95.13
2022-11-19T18:42:10.868Z,95.74
2022-11-19T18:47:14.754Z,96.25
2022-11-19T18:52:16.406Z,95.56
2022-11-19T18:57:18.067Z,95.46
2022-11-19T19:02:19.744Z,95.02
2022-11-19T19:07:21.571Z,94.80
2022-11-19T19:12:23.308Z,96.29
2022-11-19T19:17:25.134Z,96.69
2022-11-19T19:22:26.913Z,96.04
2022-11-19T19:27:28.680Z,95.65
2022-11-19T19:32:30.393Z,95.69
2022-11-19T19:37:32.044Z,95.70
2022-11-19T19:42:38.439Z,95.22
2022-11-19T19:47:42.664Z,95.92
2022-11-19T19:52:44.315Z,96.33
2022-11-19T19:57:45.977Z,96.04
2022-11-19T20:02:49.020Z,95.87
2022-11-19T20:07:50.680Z,96.08
2022-11-19T20:13:10.637Z,96.35
2022-11-19T20:18:12.292Z,95.55
2022-11-19T20:23:13.964Z,95.82
2022-11-19T20:28:15.645Z,95.84
2022-11-19T20:33:17.778Z,96.09
2022-11-19T20:38:19.826Z,95.67
2022-11-19T20:43:45.803Z,95.97
2022-11-19T20:48:50.611Z,96.02
2022-11-19T20:53:52.581Z,96.04
2022-11-19T20:58:54.522Z,95.84
2022-11-19T21:03:59.732Z,96.33
2022-11-19T21:09:01.731Z,95.54
2022-11-19T21:14:04.095Z,95.54
2022-11-19T21:19:05.804Z,95.90
2022-11-19T21:24:07.832Z,96.54
2022-11-19T21:29:09.538Z,96.26
2022-11-19T21:34:17.687Z,95.42
2022-11-19T21:39:20.472Z,94.92
2022-11-19T21:44:22.572Z,94.74
2022-11-19T21:49:24.381Z,95.10
2022-11-19T21:54:26.127Z,95.90
2022-11-19T21:59:27.779Z,95.42
2022-11-19T22:04:29.498Z,94.95
2022-11-19T22:09:31.386Z,95.49
2022-11-19T22:14:33.039Z,95.38
2022-11-19T22:19:36.003Z,96.18
2022-11-19T22:24:37.683Z,95.79
2022-11-19T22:29:39.512Z,96.26
2022-11-19T22:34:41.181Z,95.97
2022-11-19T22:39:43.950Z,95.67
2022-11-19T22:44:45.648Z,95.17
2022-11-19T22:49:47.348Z,95.28
2022-11-19T22:54:49.101Z,94.58
2022-11-19T22:59:50.773Z,94.94
2022-11-19T23:04:52.899Z,94.65
2022-11-19T23:09:54.566Z,95.33
2022-11-19T23:14:56.529Z,94.95
2022-11-19T23:20:03.106Z,94.25
2022-11-19T23:25:06.567Z,94.73
2022-11-19T23:30:08.751Z,95.32
2022-11-19T23:35:10.408Z,96.08
2022-11-19T23:40:12.232Z,95.15
2022-11-19T23:45:13.932Z,94.50
2022-11-19T23:50:15.660Z,94.02
2022-11-19T23:55:17.320Z,93.77
